Florence, Mississippi
Current Conditions -  °F | °C
As of 2:54 PM on Friday 19 Dec 2014 (Local Time) from KJAN Reporting Station
Light Rain Light Rain  
Wind Chill: 43°   Ceiling: 800
Heat Index: 47°   Visibility: 8mi
Dew Point: 44°   Wind: 8mph
Humidity: 90%   Direction: 20°NNE
Pressure: 30.14"   Gusts: NA
Location:  32.15°N, 90.13°W
Report Text: KJAN 192054Z 02007KT 8SM -RA BKN008 OVC030 08/07 A3014 RMK AO2 CIG 006V015 SLP205 P0004 60011 T00830067 55004
Loading
Personal Weather Stations






























Interactive Weather Map New forecast layout! Learn more

10-Day Weather Forecast

Advertisements
Track Severe Weather on mobile